Elmwood, Oklahoma
Current Conditions -  °F | °C
As of 2:15 PM on Wednesday 26 Nov 2014 (Local Time) from KPYX Reporting Station
Clear Clear  
Wind Chill: 44°   Ceiling: Unl
Heat Index: 49°   Visibility: 10mi
Dew Point: 22°   Wind: 14mph
Humidity: 35%   Direction: 340°NNW
Pressure: 30.26"   Gusts: NA
Location:  36.7319°N, 100.575°W
Report Text: KPYX 262015Z AUTO 34012KT 10SM CLR 10/M05 A3026 RMK AO2 T00951054
Loading
Personal Weather Stations






























Interactive Weather Map New forecast layout! Learn more

10-Day Weather Forecast

Advertisements
Track Severe Weather on mobile